sensor_id;sensor_type;location;lat;lon;timestamp;temperature;humidity
46890;DHT22;32625;51.080;16.970;2024-01-07T00:00:30;-0.60;99.90
46890;DHT22;32625;51.080;16.970;2024-01-07T00:03:44;-0.60;99.90
46890;DHT22;32625;51.080;16.970;2024-01-07T00:06:58;-0.60;99.90
46890;DHT22;32625;51.080;16.970;2024-01-07T00:10:09;-0.50;99.90
46890;DHT22;32625;51.080;16.970;2024-01-07T00:13:23;-0.50;99.90
46890;DHT22;32625;51.080;16.970;2024-01-07T00:16:39;-0.60;99.90
46890;DHT22;32625;51.080;16.970;2024-01-07T00:19:55;-0.60;99.90
46890;DHT22;32625;51.080;16.970;2024-01-07T00:23:06;-0.60;99.90
46890;DHT22;32625;51.080;16.970;2024-01-07T00:26:20;-0.60;99.90
46890;DHT22;32625;51.080;16.970;2024-01-07T00:29:34;-0.60;99.90
46890;DHT22;32625;51.080;16.970;2024-01-07T00:32:49;-0.60;99.90
46890;DHT22;32625;51.080;16.970;2024-01-07T00:36:02;-0.80;99.90
46890;DHT22;32625;51.080;16.970;2024-01-07T00:39:16;-0.80;99.90
46890;DHT22;32625;51.080;16.970;2024-01-07T00:42:30;-0.90;99.90
46890;DHT22;32625;51.080;16.970;2024-01-07T00:45:46;-0.80;99.90
46890;DHT22;32625;51.080;16.970;2024-01-07T00:48:57;-0.80;99.90
46890;DHT22;32625;51.080;16.970;2024-01-07T00:52:13;-0.80;99.90
46890;DHT22;32625;51.080;16.970;2024-01-07T00:55:27;-0.90;99.90
46890;DHT22;32625;51.080;16.970;2024-01-07T00:58:41;-1.00;99.90
46890;DHT22;32625;51.080;16.970;2024-01-07T01:01:52;-0.90;99.90
46890;DHT22;32625;51.080;16.970;2024-01-07T01:05:07;-0.90;99.90
46890;DHT22;32625;51.080;16.970;2024-01-07T01:08:21;-0.90;99.90
46890;DHT22;32625;51.080;16.970;2024-01-07T01:11:35;-0.80;99.90
46890;DHT22;32625;51.080;16.970;2024-01-07T01:14:46;-0.80;99.90
46890;DHT22;32625;51.080;16.970;2024-01-07T01:18:00;-1.00;99.90
46890;DHT22;32625;51.080;16.970;2024-01-07T01:21:14;-1.00;99.90
46890;DHT22;32625;51.080;16.970;2024-01-07T01:24:30;-1.00;99.90
46890;DHT22;32625;51.080;16.970;2024-01-07T01:27:41;-1.00;99.90
46890;DHT22;32625;51.080;16.970;2024-01-07T01:30:55;-1.10;99.90
46890;DHT22;32625;51.080;16.970;2024-01-07T01:34:10;-0.90;99.90
46890;DHT22;32625;51.080;16.970;2024-01-07T01:37:24;-1.00;99.90
46890;DHT22;32625;51.080;16.970;2024-01-07T01:40:35;-1.00;99.90
46890;DHT22;32625;51.080;16.970;2024-01-07T01:43:49;-0.90;99.90
46890;DHT22;32625;51.080;16.970;2024-01-07T01:47:03;-1.00;99.90
46890;DHT22;32625;51.080;16.970;2024-01-07T01:50:19;-1.00;99.90
46890;DHT22;32625;51.080;16.970;2024-01-07T01:53:31;-1.00;99.90
46890;DHT22;32625;51.080;16.970;2024-01-07T01:56:47;-1.00;99.90
46890;DHT22;32625;51.080;16.970;2024-01-07T02:00:04;-1.00;99.90
46890;DHT22;32625;51.080;16.970;2024-01-07T02:03:19;-1.00;99.90
46890;DHT22;32625;51.080;16.970;2024-01-07T02:06:30;-1.10;99.90
46890;DHT22;32625;51.080;16.970;2024-01-07T02:09:44;-1.10;99.90
46890;DHT22;32625;51.080;16.970;2024-01-07T02:12:58;-1.20;99.90
46890;DHT22;32625;51.080;16.970;2024-01-07T02:16:12;-1.20;99.90
46890;DHT22;32625;51.080;16.970;2024-01-07T02:19:24;-1.20;99.90
46890;DHT22;32625;51.080;16.970;2024-01-07T02:22:38;-1.40;99.90
46890;DHT22;32625;51.080;16.970;2024-01-07T02:25:52;-1.40;99.90
46890;DHT22;32625;51.080;16.970;2024-01-07T02:29:07;-1.40;99.90
46890;DHT22;32625;51.080;16.970;2024-01-07T02:32:18;-1.30;99.90
46890;DHT22;32625;51.080;16.970;2024-01-07T02:35:32;-1.30;99.90
46890;DHT22;32625;51.080;16.970;2024-01-07T02:38:46;-1.30;99.90
46890;DHT22;32625;51.080;16.970;2024-01-07T02:42:01;-1.20;99.90
46890;DHT22;32625;51.080;16.970;2024-01-07T02:45:12;-1.30;99.90
46890;DHT22;32625;51.080;16.970;2024-01-07T02:48:26;-1.30;99.90
46890;DHT22;32625;51.080;16.970;2024-01-07T02:51:40;-1.20;99.90
46890;DHT22;32625;51.080;16.970;2024-01-07T02:54:54;-1.20;99.90
46890;DHT22;32625;51.080;16.970;2024-01-07T02:58:05;-1.20;99.90
46890;DHT22;32625;51.080;16.970;2024-01-07T03:01:22;-1.30;99.90
46890;DHT22;32625;51.080;16.970;2024-01-07T03:04:37;-1.40;99.90
46890;DHT22;32625;51.080;16.970;2024-01-07T03:07:50;-1.40;99.90
46890;DHT22;32625;51.080;16.970;2024-01-07T03:11:05;-1.40;99.90
46890;DHT22;32625;51.080;16.970;2024-01-07T03:14:20;-1.50;99.90
46890;DHT22;32625;51.080;16.970;2024-01-07T03:17:35;-1.60;99.90
46890;DHT22;32625;51.080;16.970;2024-01-07T03:20:49;-1.70;99.90
46890;DHT22;32625;51.080;16.970;2024-01-07T03:24:00;-1.60;99.90
46890;DHT22;32625;51.080;16.970;2024-01-07T03:27:14;-1.70;99.90
46890;DHT22;32625;51.080;16.970;2024-01-07T03:30:28;-1.70;99.90
46890;DHT22;32625;51.080;16.970;2024-01-07T03:33:44;-1.50;99.90
46890;DHT22;32625;51.080;16.970;2024-01-07T03:36:55;-1.50;99.90
46890;DHT22;32625;51.080;16.970;2024-01-07T03:40:10;-1.50;99.90
46890;DHT22;32625;51.080;16.970;2024-01-07T03:43:25;-1.40;99.90
46890;DHT22;32625;51.080;16.970;2024-01-07T03:46:39;-1.50;99.90
46890;DHT22;32625;51.080;16.970;2024-01-07T03:49:50;-1.60;99.90
46890;DHT22;32625;51.080;16.970;2024-01-07T03:53:04;-1.50;99.90
46890;DHT22;32625;51.080;16.970;2024-01-07T03:56:18;-1.70;99.90
46890;DHT22;32625;51.080;16.970;2024-01-07T03:59:31;-1.70;99.90
46890;DHT22;32625;51.080;16.970;2024-01-07T04:02:42;-1.70;99.90
46890;DHT22;32625;51.080;16.970;2024-01-07T04:05:59;-1.70;99.90
46890;DHT22;32625;51.080;16.970;2024-01-07T04:09:13;-1.70;99.90
46890;DHT22;32625;51.080;16.970;2024-01-07T04:12:27;-1.60;99.90
46890;DHT22;32625;51.080;16.970;2024-01-07T04:15:38;-1.50;99.90
46890;DHT22;32625;51.080;16.970;2024-01-07T04:18:52;-1.50;99.90
46890;DHT22;32625;51.080;16.970;2024-01-07T04:22:07;-1.60;99.90
46890;DHT22;32625;51.080;16.970;2024-01-07T04:25:21;-1.50;99.90
46890;DHT22;32625;51.080;16.970;2024-01-07T04:28:32;-1.60;99.90
46890;DHT22;32625;51.080;16.970;2024-01-07T04:31:46;-1.50;99.90
46890;DHT22;32625;51.080;16.970;2024-01-07T04:35:00;-1.50;99.90
46890;DHT22;32625;51.080;16.970;2024-01-07T04:38:16;-1.50;99.90
46890;DHT22;32625;51.080;16.970;2024-01-07T04:41:27;-1.40;99.90
46890;DHT22;32625;51.080;16.970;2024-01-07T04:44:41;-1.40;99.90
46890;DHT22;32625;51.080;16.970;2024-01-07T04:47:55;-1.40;99.90
46890;DHT22;32625;51.080;16.970;2024-01-07T04:51:09;-1.40;99.90
46890;DHT22;32625;51.080;16.970;2024-01-07T04:54:20;-1.60;99.90
46890;DHT22;32625;51.080;16.970;2024-01-07T04:57:34;-1.50;99.90
46890;DHT22;32625;51.080;16.970;2024-01-07T05:00:48;-1.50;99.90
46890;DHT22;32625;51.080;16.970;2024-01-07T05:04:02;-1.50;99.90
46890;DHT22;32625;51.080;16.970;2024-01-07T05:07:13;-1.50;99.90
46890;DHT22;32625;51.080;16.970;2024-01-07T05:10:29;-1.50;99.90
46890;DHT22;32625;51.080;16.970;2024-01-07T05:13:43;-1.40;99.90
46890;DHT22;32625;51.080;16.970;2024-01-07T05:16:57;-1.70;99.90
46890;DHT22;32625;51.080;16.970;2024-01-07T05:20:08;-1.70;99.90
46890;DHT22;32625;51.080;16.970;2024-01-07T05:23:22;-1.60;99.90
46890;DHT22;32625;51.080;16.970;2024-01-07T05:26:41;-1.60;99.90
46890;DHT22;32625;51.080;16.970;2024-01-07T05:29:55;-1.50;99.90
46890;DHT22;32625;51.080;16.970;2024-01-07T05:33:06;-1.50;99.90
46890;DHT22;32625;51.080;16.970;2024-01-07T05:36:20;-1.40;99.90
46890;DHT22;32625;51.080;16.970;2024-01-07T05:39:35;-1.40;99.90
46890;DHT22;32625;51.080;16.970;2024-01-07T05:42:50;-1.50;99.90
46890;DHT22;32625;51.080;16.970;2024-01-07T05:46:02;-1.70;99.90
46890;DHT22;32625;51.080;16.970;2024-01-07T05:49:17;-1.80;99.90
46890;DHT22;32625;51.080;16.970;2024-01-07T05:52:31;-1.70;99.90
46890;DHT22;32625;51.080;16.970;2024-01-07T05:55:45;-1.70;99.90
46890;DHT22;32625;51.080;16.970;2024-01-07T05:58:56;-1.80;99.90
46890;DHT22;32625;51.080;16.970;2024-01-07T06:02:10;-1.70;99.90
46890;DHT22;32625;51.080;16.970;2024-01-07T06:05:24;-1.80;99.90
46890;DHT22;32625;51.080;16.970;2024-01-07T06:08:38;-1.60;99.90
46890;DHT22;32625;51.080;16.970;2024-01-07T06:11:49;-1.70;99.90
46890;DHT22;32625;51.080;16.970;2024-01-07T06:15:04;-1.90;99.90
46890;DHT22;32625;51.080;16.970;2024-01-07T06:18:19;-1.90;99.90
46890;DHT22;32625;51.080;16.970;2024-01-07T06:21:33;-1.70;99.90
46890;DHT22;32625;51.080;16.970;2024-01-07T06:24:44;-1.80;99.90
46890;DHT22;32625;51.080;16.970;2024-01-07T06:27:58;-1.70;99.90
46890;DHT22;32625;51.080;16.970;2024-01-07T06:31:12;-1.90;99.90
46890;DHT22;32625;51.080;16.970;2024-01-07T06:34:26;-1.80;99.90
46890;DHT22;32625;51.080;16.970;2024-01-07T06:37:37;-1.90;99.90
46890;DHT22;32625;51.080;16.970;2024-01-07T06:40:51;-1.80;99.90
46890;DHT22;32625;51.080;16.970;2024-01-07T06:44:09;-1.80;99.90
46890;DHT22;32625;51.080;16.970;2024-01-07T06:47:25;-1.90;99.90
46890;DHT22;32625;51.080;16.970;2024-01-07T06:50:36;-2.00;99.90
46890;DHT22;32625;51.080;16.970;2024-01-07T06:53:50;-2.00;99.90
46890;DHT22;32625;51.080;16.970;2024-01-07T06:57:04;-2.00;99.90
46890;DHT22;32625;51.080;16.970;2024-01-07T07:00:18;-2.00;99.90
46890;DHT22;32625;51.080;16.970;2024-01-07T07:03:29;-2.00;99.90
46890;DHT22;32625;51.080;16.970;2024-01-07T07:06:43;-1.90;99.90
46890;DHT22;32625;51.080;16.970;2024-01-07T07:09:57;-1.90;99.90
46890;DHT22;32625;51.080;16.970;2024-01-07T07:13:11;-1.80;99.90
46890;DHT22;32625;51.080;16.970;2024-01-07T07:16:22;-1.90;99.90
46890;DHT22;32625;51.080;16.970;2024-01-07T07:19:38;-1.90;99.90
46890;DHT22;32625;51.080;16.970;2024-01-07T07:22:57;-1.90;99.90
46890;DHT22;32625;51.080;16.970;2024-01-07T07:26:12;-2.00;99.90
46890;DHT22;32625;51.080;16.970;2024-01-07T07:29:23;-2.00;99.90
46890;DHT22;32625;51.080;16.970;2024-01-07T07:32:40;-1.90;99.90
46890;DHT22;32625;51.080;16.970;2024-01-07T07:35:58;-1.90;99.90
46890;DHT22;32625;51.080;16.970;2024-01-07T07:39:12;-1.90;99.90
46890;DHT22;32625;51.080;16.970;2024-01-07T07:42:25;-2.00;99.90
46890;DHT22;32625;51.080;16.970;2024-01-07T07:45:42;-2.10;99.90
46890;DHT22;32625;51.080;16.970;2024-01-07T07:48:56;-2.10;99.90
46890;DHT22;32625;51.080;16.970;2024-01-07T07:52:12;-2.10;99.90
46890;DHT22;32625;51.080;16.970;2024-01-07T07:55:26;-2.10;99.90
46890;DHT22;32625;51.080;16.970;2024-01-07T07:58:41;-2.30;99.90
46890;DHT22;32625;51.080;16.970;2024-01-07T08:01:55;-2.30;99.90
46890;DHT22;32625;51.080;16.970;2024-01-07T08:05:09;-2.20;99.90
46890;DHT22;32625;51.080;16.970;2024-01-07T08:08:20;-2.10;99.90
46890;DHT22;32625;51.080;16.970;2024-01-07T08:11:34;-2.40;99.90
46890;DHT22;32625;51.080;16.970;2024-01-07T08:14:50;-2.20;99.90
46890;DHT22;32625;51.080;16.970;2024-01-07T08:18:04;-2.20;99.90
46890;DHT22;32625;51.080;16.970;2024-01-07T08:21:15;-2.20;99.90
46890;DHT22;32625;51.080;16.970;2024-01-07T08:24:31;-2.10;99.90
46890;DHT22;32625;51.080;16.970;2024-01-07T08:27:45;-2.10;99.90
46890;DHT22;32625;51.080;16.970;2024-01-07T08:30:59;-2.10;99.90
46890;DHT22;32625;51.080;16.970;2024-01-07T08:34:10;-2.10;99.90
46890;DHT22;32625;51.080;16.970;2024-01-07T08:37:24;-2.20;99.40
46890;DHT22;32625;51.080;16.970;2024-01-07T08:40:39;-2.20;99.90
46890;DHT22;32625;51.080;16.970;2024-01-07T08:43:53;-2.10;99.80
46890;DHT22;32625;51.080;16.970;2024-01-07T08:47:04;-2.20;99.60
46890;DHT22;32625;51.080;16.970;2024-01-07T08:50:18;-2.20;99.90
46890;DHT22;32625;51.080;16.970;2024-01-07T08:53:32;-2.10;99.90
46890;DHT22;32625;51.080;16.970;2024-01-07T08:56:47;-1.90;99.90
46890;DHT22;32625;51.080;16.970;2024-01-07T08:59:58;-1.80;99.90
46890;DHT22;32625;51.080;16.970;2024-01-07T09:03:12;-1.80;99.90
46890;DHT22;32625;51.080;16.970;2024-01-07T09:06:26;-1.90;99.90
46890;DHT22;32625;51.080;16.970;2024-01-07T09:09:40;-1.80;99.80
46890;DHT22;32625;51.080;16.970;2024-01-07T09:12:51;-1.90;99.70
46890;DHT22;32625;51.080;16.970;2024-01-07T09:16:07;-1.90;99.30
46890;DHT22;32625;51.080;16.970;2024-01-07T09:19:23;-1.90;99.90
46890;DHT22;32625;51.080;16.970;2024-01-07T09:22:37;-1.80;99.90
46890;DHT22;32625;51.080;16.970;2024-01-07T09:25:48;-1.70;99.90
46890;DHT22;32625;51.080;16.970;2024-01-07T09:29:04;-1.70;99.40
46890;DHT22;32625;51.080;16.970;2024-01-07T09:32:18;-1.60;99.30
46890;DHT22;32625;51.080;16.970;2024-01-07T09:35:32;-1.70;99.40
46890;DHT22;32625;51.080;16.970;2024-01-07T09:38:43;-1.70;99.50
46890;DHT22;32625;51.080;16.970;2024-01-07T09:41:57;-1.70;99.90
46890;DHT22;32625;51.080;16.970;2024-01-07T09:45:12;-1.70;99.50
46890;DHT22;32625;51.080;16.970;2024-01-07T09:48:26;-1.70;99.90
46890;DHT22;32625;51.080;16.970;2024-01-07T09:51:37;-1.60;99.90
46890;DHT22;32625;51.080;16.970;2024-01-07T09:54:55;-1.60;99.90
46890;DHT22;32625;51.080;16.970;2024-01-07T09:58:10;-1.60;99.90
46890;DHT22;32625;51.080;16.970;2024-01-07T10:01:26;-1.90;99.90
46890;DHT22;32625;51.080;16.970;2024-01-07T10:04:38;-1.80;99.90
46890;DHT22;32625;51.080;16.970;2024-01-07T10:07:52;-1.70;99.90
46890;DHT22;32625;51.080;16.970;2024-01-07T10:11:09;-1.70;99.90
46890;DHT22;32625;51.080;16.970;2024-01-07T10:14:23;-1.80;99.90
46890;DHT22;32625;51.080;16.970;2024-01-07T10:17:39;-2.00;98.60
46890;DHT22;32625;51.080;16.970;2024-01-07T10:20:53;-2.00;98.30
46890;DHT22;32625;51.080;16.970;2024-01-07T10:24:09;-2.00;98.60
46890;DHT22;32625;51.080;16.970;2024-01-07T10:27:26;-1.90;98.40
46890;DHT22;32625;51.080;16.970;2024-01-07T10:30:40;-1.90;98.40
46890;DHT22;32625;51.080;16.970;2024-01-07T10:33:56;-2.10;97.60
46890;DHT22;32625;51.080;16.970;2024-01-07T10:37:10;-2.10;97.50
46890;DHT22;32625;51.080;16.970;2024-01-07T10:40:26;-2.20;97.10
46890;DHT22;32625;51.080;16.970;2024-01-07T10:43:38;-2.20;96.80
46890;DHT22;32625;51.080;16.970;2024-01-07T10:46:55;-2.20;97.20
46890;DHT22;32625;51.080;16.970;2024-01-07T10:50:11;-2.20;97.40
46890;DHT22;32625;51.080;16.970;2024-01-07T10:53:25;-2.10;96.90
46890;DHT22;32625;51.080;16.970;2024-01-07T10:56:39;-2.20;96.50
46890;DHT22;32625;51.080;16.970;2024-01-07T10:59:54;-2.20;97.30
46890;DHT22;32625;51.080;16.970;2024-01-07T11:03:17;-2.00;97.80
46890;DHT22;32625;51.080;16.970;2024-01-07T11:06:40;-2.10;97.30
46890;DHT22;32625;51.080;16.970;2024-01-07T11:13:07;-2.30;96.00
46890;DHT22;32625;51.080;16.970;2024-01-07T11:19:54;-2.40;96.10
46890;DHT22;32625;51.080;16.970;2024-01-07T11:26:44;-2.30;95.60
46890;DHT22;32625;51.080;16.970;2024-01-07T11:30:40;-2.50;94.90
46890;DHT22;32625;51.080;16.970;2024-01-07T11:33:55;-2.70;94.70
46890;DHT22;32625;51.080;16.970;2024-01-07T11:37:07;-2.60;95.10
46890;DHT22;32625;51.080;16.970;2024-01-07T11:40:23;-2.70;95.30
46890;DHT22;32625;51.080;16.970;2024-01-07T11:43:38;-2.70;95.80
46890;DHT22;32625;51.080;16.970;2024-01-07T11:46:52;-2.60;95.00
46890;DHT22;32625;51.080;16.970;2024-01-07T11:50:03;-2.60;95.10
46890;DHT22;32625;51.080;16.970;2024-01-07T11:53:17;-2.90;95.10
46890;DHT22;32625;51.080;16.970;2024-01-07T11:56:31;-2.80;95.80
46890;DHT22;32625;51.080;16.970;2024-01-07T11:59:45;-2.70;95.00
46890;DHT22;32625;51.080;16.970;2024-01-07T12:02:56;-2.80;95.10
46890;DHT22;32625;51.080;16.970;2024-01-07T12:06:10;-2.90;95.20
46890;DHT22;32625;51.080;16.970;2024-01-07T12:09:27;-2.90;95.00
46890;DHT22;32625;51.080;16.970;2024-01-07T12:12:43;-2.90;94.60
46890;DHT22;32625;51.080;16.970;2024-01-07T12:15:54;-2.90;95.70
46890;DHT22;32625;51.080;16.970;2024-01-07T12:19:08;-2.80;95.50
46890;DHT22;32625;51.080;16.970;2024-01-07T12:22:24;-2.90;94.70
46890;DHT22;32625;51.080;16.970;2024-01-07T12:25:38;-2.90;94.70
46890;DHT22;32625;51.080;16.970;2024-01-07T12:28:55;-2.90;94.70
46890;DHT22;32625;51.080;16.970;2024-01-07T12:32:10;-3.00;94.40
46890;DHT22;32625;51.080;16.970;2024-01-07T12:35:25;-3.10;94.30
46890;DHT22;32625;51.080;16.970;2024-01-07T12:38:40;-3.10;94.80
46890;DHT22;32625;51.080;16.970;2024-01-07T12:41:51;-3.20;94.20
46890;DHT22;32625;51.080;16.970;2024-01-07T12:45:07;-3.00;94.60
46890;DHT22;32625;51.080;16.970;2024-01-07T12:48:22;-3.10;94.10
46890;DHT22;32625;51.080;16.970;2024-01-07T12:51:37;-3.00;94.50
46890;DHT22;32625;51.080;16.970;2024-01-07T12:54:47;-2.90;94.70
46890;DHT22;32625;51.080;16.970;2024-01-07T12:58:02;-2.90;94.10
46890;DHT22;32625;51.080;16.970;2024-01-07T13:01:16;-3.10;94.20
46890;DHT22;32625;51.080;16.970;2024-01-07T13:04:30;-3.20;94.40
46890;DHT22;32625;51.080;16.970;2024-01-07T13:07:41;-3.30;93.80
46890;DHT22;32625;51.080;16.970;2024-01-07T13:10:55;-3.10;94.50
46890;DHT22;32625;51.080;16.970;2024-01-07T13:14:09;-3.10;94.40
46890;DHT22;32625;51.080;16.970;2024-01-07T13:17:25;-3.20;94.00
46890;DHT22;32625;51.080;16.970;2024-01-07T13:20:36;-3.40;93.90
46890;DHT22;32625;51.080;16.970;2024-01-07T13:23:53;-3.40;93.30
46890;DHT22;32625;51.080;16.970;2024-01-07T13:27:07;-3.40;94.00
46890;DHT22;32625;51.080;16.970;2024-01-07T13:30:22;-3.40;94.10
46890;DHT22;32625;51.080;16.970;2024-01-07T13:33:33;-3.40;94.00
46890;DHT22;32625;51.080;16.970;2024-01-07T13:36:47;-3.40;95.30
46890;DHT22;32625;51.080;16.970;2024-01-07T13:40:01;-3.50;93.70
46890;DHT22;32625;51.080;16.970;2024-01-07T13:43:17;-3.50;93.80
46890;DHT22;32625;51.080;16.970;2024-01-07T13:46:28;-3.50;94.20
46890;DHT22;32625;51.080;16.970;2024-01-07T13:49:45;-3.60;94.20
46890;DHT22;32625;51.080;16.970;2024-01-07T13:53:01;-3.60;94.20
46890;DHT22;32625;51.080;16.970;2024-01-07T13:56:15;-3.50;94.20
46890;DHT22;32625;51.080;16.970;2024-01-07T13:59:26;-3.70;93.30
46890;DHT22;32625;51.080;16.970;2024-01-07T14:02:40;-3.90;93.00
46890;DHT22;32625;51.080;16.970;2024-01-07T14:05:56;-3.80;93.40
46890;DHT22;32625;51.080;16.970;2024-01-07T14:09:10;-3.60;94.00
46890;DHT22;32625;51.080;16.970;2024-01-07T14:12:22;-3.70;94.10
46890;DHT22;32625;51.080;16.970;2024-01-07T14:15:36;-3.80;93.30
46890;DHT22;32625;51.080;16.970;2024-01-07T14:18:50;-3.80;94.30
46890;DHT22;32625;51.080;16.970;2024-01-07T14:22:06;-3.70;93.80
46890;DHT22;32625;51.080;16.970;2024-01-07T14:25:17;-3.70;93.60
46890;DHT22;32625;51.080;16.970;2024-01-07T14:28:31;-3.80;94.10
46890;DHT22;32625;51.080;16.970;2024-01-07T14:31:45;-3.80;94.30
46890;DHT22;32625;51.080;16.970;2024-01-07T14:35:00;-3.90;93.70
46890;DHT22;32625;51.080;16.970;2024-01-07T14:38:11;-3.90;93.60
46890;DHT22;32625;51.080;16.970;2024-01-07T14:41:25;-4.00;94.50
46890;DHT22;32625;51.080;16.970;2024-01-07T14:44:39;-3.90;94.10
46890;DHT22;32625;51.080;16.970;2024-01-07T14:48:03;-4.10;94.20
46890;DHT22;32625;51.080;16.970;2024-01-07T14:51:15;-4.10;94.30
46890;DHT22;32625;51.080;16.970;2024-01-07T14:54:30;-4.10;94.90
46890;DHT22;32625;51.080;16.970;2024-01-07T14:57:46;-4.10;94.70
46890;DHT22;32625;51.080;16.970;2024-01-07T15:01:00;-4.20;95.50
46890;DHT22;32625;51.080;16.970;2024-01-07T15:04:13;-4.10;95.00
46890;DHT22;32625;51.080;16.970;2024-01-07T15:07:27;-4.10;95.10
46890;DHT22;32625;51.080;16.970;2024-01-07T15:10:41;-4.00;94.80
46890;DHT22;32625;51.080;16.970;2024-01-07T15:13:55;-4.10;95.10
46890;DHT22;32625;51.080;16.970;2024-01-07T15:17:06;-4.10;94.50
46890;DHT22;32625;51.080;16.970;2024-01-07T15:20:20;-4.30;94.60
46890;DHT22;32625;51.080;16.970;2024-01-07T15:23:34;-4.20;95.30
46890;DHT22;32625;51.080;16.970;2024-01-07T15:26:50;-4.10;95.00
46890;DHT22;32625;51.080;16.970;2024-01-07T15:30:01;-4.10;95.30
46890;DHT22;32625;51.080;16.970;2024-01-07T15:33:15;-4.10;95.70
46890;DHT22;32625;51.080;16.970;2024-01-07T15:36:29;-4.10;96.00
46890;DHT22;32625;51.080;16.970;2024-01-07T15:39:43;-4.30;96.50
46890;DHT22;32625;51.080;16.970;2024-01-07T15:42:54;-4.40;96.40
46890;DHT22;32625;51.080;16.970;2024-01-07T15:46:08;-4.40;96.20
46890;DHT22;32625;51.080;16.970;2024-01-07T15:49:23;-4.30;96.10
46890;DHT22;32625;51.080;16.970;2024-01-07T15:52:37;-4.40;96.10
46890;DHT22;32625;51.080;16.970;2024-01-07T15:55:48;-4.20;95.90
46890;DHT22;32625;51.080;16.970;2024-01-07T15:59:03;-4.50;95.60
46890;DHT22;32625;51.080;16.970;2024-01-07T16:02:17;-4.50;96.00
46890;DHT22;32625;51.080;16.970;2024-01-07T16:05:31;-4.50;95.30
46890;DHT22;32625;51.080;16.970;2024-01-07T16:08:44;-4.50;96.00
46890;DHT22;32625;51.080;16.970;2024-01-07T16:11:58;-4.50;96.00
46890;DHT22;32625;51.080;16.970;2024-01-07T16:15:12;-4.70;95.70
46890;DHT22;32625;51.080;16.970;2024-01-07T16:18:26;-4.70;96.60
46890;DHT22;32625;51.080;16.970;2024-01-07T16:21:37;-4.70;96.40
46890;DHT22;32625;51.080;16.970;2024-01-07T16:24:53;-4.60;97.00
46890;DHT22;32625;51.080;16.970;2024-01-07T16:28:08;-4.60;96.60
46890;DHT22;32625;51.080;16.970;2024-01-07T16:31:23;-4.70;96.30
46890;DHT22;32625;51.080;16.970;2024-01-07T16:34:34;-4.80;95.50
46890;DHT22;32625;51.080;16.970;2024-01-07T16:37:48;-4.90;96.20
46890;DHT22;32625;51.080;16.970;2024-01-07T16:41:06;-4.80;96.40
46890;DHT22;32625;51.080;16.970;2024-01-07T16:44:22;-4.80;96.10
46890;DHT22;32625;51.080;16.970;2024-01-07T16:47:34;-4.80;96.10
46890;DHT22;32625;51.080;16.970;2024-01-07T16:50:48;-5.00;95.70
46890;DHT22;32625;51.080;16.970;2024-01-07T16:54:07;-4.90;96.30
46890;DHT22;32625;51.080;16.970;2024-01-07T16:57:21;-4.90;95.80
46890;DHT22;32625;51.080;16.970;2024-01-07T17:00:32;-4.80;96.20
46890;DHT22;32625;51.080;16.970;2024-01-07T17:03:48;-4.90;95.80
46890;DHT22;32625;51.080;16.970;2024-01-07T17:07:02;-4.90;95.80
46890;DHT22;32625;51.080;16.970;2024-01-07T17:10:16;-5.10;95.40
46890;DHT22;32625;51.080;16.970;2024-01-07T17:13:27;-5.00;96.50
46890;DHT22;32625;51.080;16.970;2024-01-07T17:16:42;-5.10;96.40
46890;DHT22;32625;51.080;16.970;2024-01-07T17:19:57;-5.10;96.70
46890;DHT22;32625;51.080;16.970;2024-01-07T17:23:15;-5.00;96.60
46890;DHT22;32625;51.080;16.970;2024-01-07T17:26:36;-5.00;97.20
46890;DHT22;32625;51.080;16.970;2024-01-07T17:29:56;-5.10;96.80
46890;DHT22;32625;51.080;16.970;2024-01-07T17:33:16;-5.00;96.90
46890;DHT22;32625;51.080;16.970;2024-01-07T17:36:39;-5.10;96.70
46890;DHT22;32625;51.080;16.970;2024-01-07T17:39:55;-5.30;96.80
46890;DHT22;32625;51.080;16.970;2024-01-07T17:43:13;-5.20;97.20
46890;DHT22;32625;51.080;16.970;2024-01-07T17:46:34;-5.20;97.50
46890;DHT22;32625;51.080;16.970;2024-01-07T17:49:55;-5.10;97.40
46890;DHT22;32625;51.080;16.970;2024-01-07T17:53:12;-5.10;97.30
46890;DHT22;32625;51.080;16.970;2024-01-07T17:56:31;-5.20;97.10
46890;DHT22;32625;51.080;16.970;2024-01-07T17:59:54;-5.20;97.30
46890;DHT22;32625;51.080;16.970;2024-01-07T18:03:15;-5.20;97.80
46890;DHT22;32625;51.080;16.970;2024-01-07T18:06:30;-5.10;97.10
46890;DHT22;32625;51.080;16.970;2024-01-07T18:09:50;-5.20;98.00
46890;DHT22;32625;51.080;16.970;2024-01-07T18:13:11;-5.20;98.00
46890;DHT22;32625;51.080;16.970;2024-01-07T18:16:36;-5.10;98.10
46890;DHT22;32625;51.080;16.970;2024-01-07T18:19:51;-5.10;97.80
46890;DHT22;32625;51.080;16.970;2024-01-07T18:23:10;-5.10;98.20
46890;DHT22;32625;51.080;16.970;2024-01-07T18:26:33;-5.00;97.40
46890;DHT22;32625;51.080;16.970;2024-01-07T18:29:54;-5.00;97.90
46890;DHT22;32625;51.080;16.970;2024-01-07T18:33:11;-5.20;97.50
46890;DHT22;32625;51.080;16.970;2024-01-07T18:36:29;-5.30;97.20
46890;DHT22;32625;51.080;16.970;2024-01-07T18:39:50;-5.40;97.10
46890;DHT22;32625;51.080;16.970;2024-01-07T18:43:12;-5.30;97.20
46890;DHT22;32625;51.080;16.970;2024-01-07T18:46:27;-5.30;97.00
46890;DHT22;32625;51.080;16.970;2024-01-07T18:49:46;-5.30;97.60
46890;DHT22;32625;51.080;16.970;2024-01-07T18:53:07;-5.20;97.60
46890;DHT22;32625;51.080;16.970;2024-01-07T18:56:27;-5.20;97.50
46890;DHT22;32625;51.080;16.970;2024-01-07T18:59:44;-5.20;97.40
46890;DHT22;32625;51.080;16.970;2024-01-07T19:03:02;-5.20;97.00
46890;DHT22;32625;51.080;16.970;2024-01-07T19:06:23;-5.20;97.20
46890;DHT22;32625;51.080;16.970;2024-01-07T19:09:44;-5.20;97.70
46890;DHT22;32625;51.080;16.970;2024-01-07T19:13:00;-5.20;97.60
46890;DHT22;32625;51.080;16.970;2024-01-07T19:16:19;-5.20;97.40
46890;DHT22;32625;51.080;16.970;2024-01-07T19:19:40;-5.20;97.00
46890;DHT22;32625;51.080;16.970;2024-01-07T19:23:01;-5.10;97.40
46890;DHT22;32625;51.080;16.970;2024-01-07T19:26:17;-5.20;96.70
46890;DHT22;32625;51.080;16.970;2024-01-07T19:29:35;-5.30;97.10
46890;DHT22;32625;51.080;16.970;2024-01-07T19:32:56;-5.20;97.10
46890;DHT22;32625;51.080;16.970;2024-01-07T19:36:17;-5.20;97.30
46890;DHT22;32625;51.080;16.970;2024-01-07T19:39:32;-5.20;97.10
46890;DHT22;32625;51.080;16.970;2024-01-07T19:42:54;-5.20;97.00
46890;DHT22;32625;51.080;16.970;2024-01-07T19:46:22;-5.30;96.50
46890;DHT22;32625;51.080;16.970;2024-01-07T19:49:45;-5.30;97.30
46890;DHT22;32625;51.080;16.970;2024-01-07T19:53:01;-5.30;96.90
46890;DHT22;32625;51.080;16.970;2024-01-07T19:56:22;-5.30;96.10
46890;DHT22;32625;51.080;16.970;2024-01-07T19:59:43;-5.30;96.90
46890;DHT22;32625;51.080;16.970;2024-01-07T20:03:04;-5.40;96.60
46890;DHT22;32625;51.080;16.970;2024-01-07T20:06:19;-5.20;96.90
46890;DHT22;32625;51.080;16.970;2024-01-07T20:09:38;-5.30;96.80
46890;DHT22;32625;51.080;16.970;2024-01-07T20:13:01;-5.30;97.00
46890;DHT22;32625;51.080;16.970;2024-01-07T20:16:22;-5.40;96.80
46890;DHT22;32625;51.080;16.970;2024-01-07T20:19:37;-5.30;96.90